sensor_id;sensor_type;location;lat;lon;timestamp;P1;durP1;ratioP1;P2;durP2;ratioP2
46308;SDS011;32037;50.820;6.494;2023-03-03T00:01:42;5.00;;;3.83;;
46308;SDS011;32037;50.820;6.494;2023-03-03T00:04:11;5.53;;;3.55;;
46308;SDS011;32037;50.820;6.494;2023-03-03T00:06:39;3.97;;;2.72;;
46308;SDS011;32037;50.820;6.494;2023-03-03T00:09:08;4.63;;;3.05;;
46308;SDS011;32037;50.820;6.494;2023-03-03T00:11:36;4.18;;;2.75;;
46308;SDS011;32037;50.820;6.494;2023-03-03T00:14:09;5.82;;;3.50;;
46308;SDS011;32037;50.820;6.494;2023-03-03T00:16:46;3.95;;;2.85;;
46308;SDS011;32037;50.820;6.494;2023-03-03T00:19:16;4.50;;;3.58;;
46308;SDS011;32037;50.820;6.494;2023-03-03T00:21:47;5.18;;;3.45;;
46308;SDS011;32037;50.820;6.494;2023-03-03T00:24:18;3.58;;;3.10;;
46308;SDS011;32037;50.820;6.494;2023-03-03T00:26:48;3.72;;;2.92;;
46308;SDS011;32037;50.820;6.494;2023-03-03T00:29:26;3.97;;;2.80;;
46308;SDS011;32037;50.820;6.494;2023-03-03T00:34:50;5.55;;;3.55;;
46308;SDS011;32037;50.820;6.494;2023-03-03T00:37:27;5.53;;;3.70;;
46308;SDS011;32037;50.820;6.494;2023-03-03T00:42:51;5.10;;;3.47;;
46308;SDS011;32037;50.820;6.494;2023-03-03T00:45:28;4.13;;;3.20;;
46308;SDS011;32037;50.820;6.494;2023-03-03T00:47:58;3.60;;;3.10;;
46308;SDS011;32037;50.820;6.494;2023-03-03T00:50:44;4.63;;;3.20;;
46308;SDS011;32037;50.820;6.494;2023-03-03T00:53:13;3.35;;;3.05;;
46308;SDS011;32037;50.820;6.494;2023-03-03T00:55:43;4.55;;;3.05;;
46308;SDS011;32037;50.820;6.494;2023-03-03T00:58:13;4.47;;;3.58;;
46308;SDS011;32037;50.820;6.494;2023-03-03T01:00:46;4.20;;;3.40;;
46308;SDS011;32037;50.820;6.494;2023-03-03T01:03:18;5.20;;;4.53;;
46308;SDS011;32037;50.820;6.494;2023-03-03T01:05:48;4.72;;;3.40;;
46308;SDS011;32037;50.820;6.494;2023-03-03T01:08:17;4.55;;;3.80;;
46308;SDS011;32037;50.820;6.494;2023-03-03T01:10:47;3.83;;;3.50;;
46308;SDS011;32037;50.820;6.494;2023-03-03T01:13:18;5.05;;;3.63;;
46308;SDS011;32037;50.820;6.494;2023-03-03T01:15:49;4.18;;;3.08;;
46308;SDS011;32037;50.820;6.494;2023-03-03T01:18:18;5.10;;;3.90;;
46308;SDS011;32037;50.820;6.494;2023-03-03T01:20:46;4.18;;;2.97;;
46308;SDS011;32037;50.820;6.494;2023-03-03T01:23:15;6.85;;;4.55;;
46308;SDS011;32037;50.820;6.494;2023-03-03T01:25:44;5.50;;;3.45;;
46308;SDS011;32037;50.820;6.494;2023-03-03T01:28:13;5.72;;;3.88;;
46308;SDS011;32037;50.820;6.494;2023-03-03T01:30:41;4.80;;;3.70;;
46308;SDS011;32037;50.820;6.494;2023-03-03T01:33:12;5.80;;;3.50;;
46308;SDS011;32037;50.820;6.494;2023-03-03T01:35:43;4.38;;;3.78;;
46308;SDS011;32037;50.820;6.494;2023-03-03T01:38:12;5.32;;;3.72;;
46308;SDS011;32037;50.820;6.494;2023-03-03T01:40:41;6.15;;;3.35;;
46308;SDS011;32037;50.820;6.494;2023-03-03T01:43:11;6.90;;;4.35;;
46308;SDS011;32037;50.820;6.494;2023-03-03T01:46:18;4.82;;;3.67;;
46308;SDS011;32037;50.820;6.494;2023-03-03T01:49:00;5.50;;;3.67;;
46308;SDS011;32037;50.820;6.494;2023-03-03T01:51:33;6.25;;;4.57;;
46308;SDS011;32037;50.820;6.494;2023-03-03T01:54:06;5.22;;;3.50;;
46308;SDS011;32037;50.820;6.494;2023-03-03T01:56:39;5.47;;;4.00;;
46308;SDS011;32037;50.820;6.494;2023-03-03T01:59:10;5.65;;;3.70;;
46308;SDS011;32037;50.820;6.494;2023-03-03T02:01:43;5.10;;;3.97;;
46308;SDS011;32037;50.820;6.494;2023-03-03T02:04:14;7.40;;;3.97;;
46308;SDS011;32037;50.820;6.494;2023-03-03T02:06:45;5.10;;;4.30;;
46308;SDS011;32037;50.820;6.494;2023-03-03T02:09:20;4.05;;;3.53;;
46308;SDS011;32037;50.820;6.494;2023-03-03T02:11:55;6.00;;;4.38;;
46308;SDS011;32037;50.820;6.494;2023-03-03T02:14:27;7.63;;;5.10;;
46308;SDS011;32037;50.820;6.494;2023-03-03T02:16:55;6.40;;;4.45;;
46308;SDS011;32037;50.820;6.494;2023-03-03T02:19:28;6.00;;;4.90;;
46308;SDS011;32037;50.820;6.494;2023-03-03T02:22:02;7.40;;;4.75;;
46308;SDS011;32037;50.820;6.494;2023-03-03T02:24:32;7.80;;;4.43;;
46308;SDS011;32037;50.820;6.494;2023-03-03T02:27:07;7.53;;;4.57;;
46308;SDS011;32037;50.820;6.494;2023-03-03T02:29:36;6.00;;;4.63;;
46308;SDS011;32037;50.820;6.494;2023-03-03T02:32:05;5.00;;;3.88;;
46308;SDS011;32037;50.820;6.494;2023-03-03T02:34:42;7.32;;;4.35;;
46308;SDS011;32037;50.820;6.494;2023-03-03T02:37:15;7.25;;;4.47;;
46308;SDS011;32037;50.820;6.494;2023-03-03T02:39:44;7.50;;;4.78;;
46308;SDS011;32037;50.820;6.494;2023-03-03T02:42:17;6.22;;;4.57;;
46308;SDS011;32037;50.820;6.494;2023-03-03T02:44:52;9.70;;;6.05;;
46308;SDS011;32037;50.820;6.494;2023-03-03T02:47:22;9.23;;;5.68;;
46308;SDS011;32037;50.820;6.494;2023-03-03T02:49:51;7.30;;;5.53;;
46308;SDS011;32037;50.820;6.494;2023-03-03T02:52:19;6.90;;;4.82;;
46308;SDS011;32037;50.820;6.494;2023-03-03T02:54:48;7.40;;;4.72;;
46308;SDS011;32037;50.820;6.494;2023-03-03T02:57:18;8.70;;;5.72;;
46308;SDS011;32037;50.820;6.494;2023-03-03T02:59:47;7.70;;;5.43;;
46308;SDS011;32037;50.820;6.494;2023-03-03T03:02:16;7.72;;;4.93;;
46308;SDS011;32037;50.820;6.494;2023-03-03T03:04:46;7.85;;;5.45;;
46308;SDS011;32037;50.820;6.494;2023-03-03T03:07:19;10.60;;;6.30;;
46308;SDS011;32037;50.820;6.494;2023-03-03T03:09:48;6.18;;;4.72;;
46308;SDS011;32037;50.820;6.494;2023-03-03T03:12:18;7.43;;;5.55;;
46308;SDS011;32037;50.820;6.494;2023-03-03T03:14:50;8.93;;;5.95;;
46308;SDS011;32037;50.820;6.494;2023-03-03T03:17:19;8.45;;;5.15;;
46308;SDS011;32037;50.820;6.494;2023-03-03T03:19:49;7.72;;;5.20;;
46308;SDS011;32037;50.820;6.494;2023-03-03T03:22:18;8.80;;;5.03;;
46308;SDS011;32037;50.820;6.494;2023-03-03T03:24:48;9.77;;;5.97;;
46308;SDS011;32037;50.820;6.494;2023-03-03T03:27:16;9.32;;;5.30;;
46308;SDS011;32037;50.820;6.494;2023-03-03T03:29:47;8.20;;;5.95;;
46308;SDS011;32037;50.820;6.494;2023-03-03T03:32:17;12.77;;;8.77;;
46308;SDS011;32037;50.820;6.494;2023-03-03T03:34:46;9.40;;;6.00;;
46308;SDS011;32037;50.820;6.494;2023-03-03T03:37:15;9.55;;;5.35;;
46308;SDS011;32037;50.820;6.494;2023-03-03T03:39:45;11.35;;;6.95;;
46308;SDS011;32037;50.820;6.494;2023-03-03T03:42:13;8.45;;;6.13;;
46308;SDS011;32037;50.820;6.494;2023-03-03T03:44:43;11.60;;;6.57;;
46308;SDS011;32037;50.820;6.494;2023-03-03T03:47:13;12.25;;;7.65;;
46308;SDS011;32037;50.820;6.494;2023-03-03T03:49:42;11.65;;;6.28;;
46308;SDS011;32037;50.820;6.494;2023-03-03T03:52:11;11.20;;;6.72;;
46308;SDS011;32037;50.820;6.494;2023-03-03T03:54:40;8.88;;;6.13;;
46308;SDS011;32037;50.820;6.494;2023-03-03T03:57:09;10.35;;;6.18;;
46308;SDS011;32037;50.820;6.494;2023-03-03T03:59:38;10.93;;;7.03;;
46308;SDS011;32037;50.820;6.494;2023-03-03T04:02:08;9.95;;;6.53;;
46308;SDS011;32037;50.820;6.494;2023-03-03T04:04:36;9.93;;;6.13;;
46308;SDS011;32037;50.820;6.494;2023-03-03T04:07:05;9.57;;;6.25;;
46308;SDS011;32037;50.820;6.494;2023-03-03T04:09:37;10.70;;;6.78;;
46308;SDS011;32037;50.820;6.494;2023-03-03T04:12:07;9.52;;;6.60;;
46308;SDS011;32037;50.820;6.494;2023-03-03T04:14:35;10.98;;;6.60;;
46308;SDS011;32037;50.820;6.494;2023-03-03T04:17:04;13.05;;;7.80;;
46308;SDS011;32037;50.820;6.494;2023-03-03T04:19:34;10.38;;;7.10;;
46308;SDS011;32037;50.820;6.494;2023-03-03T04:22:04;15.18;;;8.02;;
46308;SDS011;32037;50.820;6.494;2023-03-03T04:24:33;10.27;;;7.30;;
46308;SDS011;32037;50.820;6.494;2023-03-03T04:27:03;12.25;;;7.78;;
46308;SDS011;32037;50.820;6.494;2023-03-03T04:29:31;12.48;;;7.63;;
46308;SDS011;32037;50.820;6.494;2023-03-03T04:32:00;11.15;;;6.80;;
46308;SDS011;32037;50.820;6.494;2023-03-03T04:34:29;12.65;;;8.25;;
46308;SDS011;32037;50.820;6.494;2023-03-03T04:36:59;10.27;;;7.57;;
46308;SDS011;32037;50.820;6.494;2023-03-03T04:39:28;12.30;;;7.10;;
46308;SDS011;32037;50.820;6.494;2023-03-03T04:41:57;11.30;;;8.32;;
46308;SDS011;32037;50.820;6.494;2023-03-03T04:44:26;13.10;;;8.70;;
46308;SDS011;32037;50.820;6.494;2023-03-03T04:46:54;16.25;;;9.75;;
46308;SDS011;32037;50.820;6.494;2023-03-03T04:49:23;13.65;;;9.05;;
46308;SDS011;32037;50.820;6.494;2023-03-03T04:51:52;12.73;;;8.10;;
46308;SDS011;32037;50.820;6.494;2023-03-03T04:54:22;13.48;;;8.27;;
46308;SDS011;32037;50.820;6.494;2023-03-03T04:56:51;12.02;;;6.50;;
46308;SDS011;32037;50.820;6.494;2023-03-03T04:59:20;14.68;;;7.45;;
46308;SDS011;32037;50.820;6.494;2023-03-03T05:01:49;21.10;;;12.55;;
46308;SDS011;32037;50.820;6.494;2023-03-03T05:04:17;14.80;;;8.70;;
46308;SDS011;32037;50.820;6.494;2023-03-03T05:06:46;13.55;;;8.43;;
46308;SDS011;32037;50.820;6.494;2023-03-03T05:09:14;15.98;;;8.13;;
46308;SDS011;32037;50.820;6.494;2023-03-03T05:11:44;12.63;;;8.43;;
46308;SDS011;32037;50.820;6.494;2023-03-03T05:14:13;11.43;;;7.15;;
46308;SDS011;32037;50.820;6.494;2023-03-03T05:16:41;11.32;;;8.00;;
46308;SDS011;32037;50.820;6.494;2023-03-03T05:19:10;11.60;;;8.07;;
46308;SDS011;32037;50.820;6.494;2023-03-03T05:21:39;17.45;;;10.00;;
46308;SDS011;32037;50.820;6.494;2023-03-03T05:24:08;12.60;;;7.90;;
46308;SDS011;32037;50.820;6.494;2023-03-03T05:26:37;14.38;;;8.90;;
46308;SDS011;32037;50.820;6.494;2023-03-03T05:29:07;17.15;;;9.82;;
46308;SDS011;32037;50.820;6.494;2023-03-03T05:31:36;12.88;;;8.80;;
46308;SDS011;32037;50.820;6.494;2023-03-03T05:34:05;16.02;;;8.60;;
46308;SDS011;32037;50.820;6.494;2023-03-03T05:36:33;14.07;;;8.70;;
46308;SDS011;32037;50.820;6.494;2023-03-03T05:39:02;15.13;;;8.95;;
46308;SDS011;32037;50.820;6.494;2023-03-03T05:41:31;15.45;;;9.77;;
46308;SDS011;32037;50.820;6.494;2023-03-03T05:44:02;13.00;;;8.88;;
46308;SDS011;32037;50.820;6.494;2023-03-03T05:46:32;15.32;;;8.80;;
46308;SDS011;32037;50.820;6.494;2023-03-03T05:49:01;16.42;;;10.07;;
46308;SDS011;32037;50.820;6.494;2023-03-03T05:51:29;15.05;;;9.68;;
46308;SDS011;32037;50.820;6.494;2023-03-03T05:53:58;12.63;;;9.15;;
46308;SDS011;32037;50.820;6.494;2023-03-03T05:56:27;12.73;;;9.15;;
46308;SDS011;32037;50.820;6.494;2023-03-03T05:58:55;21.40;;;10.75;;
46308;SDS011;32037;50.820;6.494;2023-03-03T06:01:24;17.83;;;10.80;;
46308;SDS011;32037;50.820;6.494;2023-03-03T06:03:55;30.30;;;15.63;;
46308;SDS011;32037;50.820;6.494;2023-03-03T06:06:24;20.60;;;12.98;;
46308;SDS011;32037;50.820;6.494;2023-03-03T06:08:53;20.25;;;12.10;;
46308;SDS011;32037;50.820;6.494;2023-03-03T06:11:22;18.23;;;10.02;;
46308;SDS011;32037;50.820;6.494;2023-03-03T06:13:51;21.05;;;11.45;;
46308;SDS011;32037;50.820;6.494;2023-03-03T06:16:20;13.80;;;9.00;;
46308;SDS011;32037;50.820;6.494;2023-03-03T06:18:49;15.85;;;9.25;;
46308;SDS011;32037;50.820;6.494;2023-03-03T06:21:19;15.50;;;10.07;;
46308;SDS011;32037;50.820;6.494;2023-03-03T06:23:47;17.75;;;11.32;;
46308;SDS011;32037;50.820;6.494;2023-03-03T06:26:16;16.40;;;10.65;;
46308;SDS011;32037;50.820;6.494;2023-03-03T06:28:44;15.98;;;10.38;;
46308;SDS011;32037;50.820;6.494;2023-03-03T06:31:13;18.42;;;10.15;;
46308;SDS011;32037;50.820;6.494;2023-03-03T06:33:42;17.55;;;10.00;;
46308;SDS011;32037;50.820;6.494;2023-03-03T06:36:10;18.40;;;11.18;;
46308;SDS011;32037;50.820;6.494;2023-03-03T06:38:40;26.45;;;14.00;;
46308;SDS011;32037;50.820;6.494;2023-03-03T06:41:09;20.08;;;11.15;;
46308;SDS011;32037;50.820;6.494;2023-03-03T06:43:38;21.55;;;10.50;;
46308;SDS011;32037;50.820;6.494;2023-03-03T06:46:06;17.75;;;9.65;;
46308;SDS011;32037;50.820;6.494;2023-03-03T06:48:35;19.98;;;10.13;;
46308;SDS011;32037;50.820;6.494;2023-03-03T06:51:08;17.30;;;10.02;;
46308;SDS011;32037;50.820;6.494;2023-03-03T06:53:48;19.35;;;10.07;;
46308;SDS011;32037;50.820;6.494;2023-03-03T06:56:19;16.13;;;10.52;;
46308;SDS011;32037;50.820;6.494;2023-03-03T06:58:48;15.32;;;9.63;;
46308;SDS011;32037;50.820;6.494;2023-03-03T07:01:17;17.30;;;9.48;;
46308;SDS011;32037;50.820;6.494;2023-03-03T07:03:45;14.07;;;9.48;;
46308;SDS011;32037;50.820;6.494;2023-03-03T07:06:15;18.73;;;9.65;;
46308;SDS011;32037;50.820;6.494;2023-03-03T07:08:50;19.05;;;11.38;;
46308;SDS011;32037;50.820;6.494;2023-03-03T07:11:20;15.07;;;9.73;;
46308;SDS011;32037;50.820;6.494;2023-03-03T07:13:50;14.60;;;8.65;;
46308;SDS011;32037;50.820;6.494;2023-03-03T07:16:23;17.15;;;10.25;;
46308;SDS011;32037;50.820;6.494;2023-03-03T07:18:53;29.88;;;15.70;;
46308;SDS011;32037;50.820;6.494;2023-03-03T07:21:24;17.85;;;10.57;;
46308;SDS011;32037;50.820;6.494;2023-03-03T07:23:59;30.27;;;16.98;;
46308;SDS011;32037;50.820;6.494;2023-03-03T07:26:37;28.92;;;16.70;;
46308;SDS011;32037;50.820;6.494;2023-03-03T07:29:12;20.50;;;12.02;;
46308;SDS011;32037;50.820;6.494;2023-03-03T07:31:48;25.38;;;14.68;;
46308;SDS011;32037;50.820;6.494;2023-03-03T07:34:19;23.33;;;12.55;;
46308;SDS011;32037;50.820;6.494;2023-03-03T07:36:49;16.85;;;11.25;;
46308;SDS011;32037;50.820;6.494;2023-03-03T07:39:26;20.77;;;11.32;;
46308;SDS011;32037;50.820;6.494;2023-03-03T07:42:06;17.63;;;11.20;;
46308;SDS011;32037;50.820;6.494;2023-03-03T07:44:50;18.40;;;11.45;;
46308;SDS011;32037;50.820;6.494;2023-03-03T07:47:22;18.02;;;12.50;;
46308;SDS011;32037;50.820;6.494;2023-03-03T07:49:53;14.98;;;10.23;;
46308;SDS011;32037;50.820;6.494;2023-03-03T07:52:24;17.92;;;10.45;;
46308;SDS011;32037;50.820;6.494;2023-03-03T07:54:58;17.05;;;10.90;;
46308;SDS011;32037;50.820;6.494;2023-03-03T07:57:32;15.88;;;11.13;;
46308;SDS011;32037;50.820;6.494;2023-03-03T08:00:43;20.08;;;11.15;;
46308;SDS011;32037;50.820;6.494;2023-03-03T08:03:15;18.70;;;11.27;;
46308;SDS011;32037;50.820;6.494;2023-03-03T08:05:46;20.58;;;12.18;;
46308;SDS011;32037;50.820;6.494;2023-03-03T08:08:26;20.15;;;12.00;;
46308;SDS011;32037;50.820;6.494;2023-03-03T08:10:58;19.67;;;11.70;;
46308;SDS011;32037;50.820;6.494;2023-03-03T08:13:28;19.25;;;11.13;;
46308;SDS011;32037;50.820;6.494;2023-03-03T08:16:17;16.83;;;10.18;;
46308;SDS011;32037;50.820;6.494;2023-03-03T08:18:52;16.13;;;10.63;;
46308;SDS011;32037;50.820;6.494;2023-03-03T08:21:21;17.52;;;11.13;;
46308;SDS011;32037;50.820;6.494;2023-03-03T08:23:51;20.40;;;10.43;;
46308;SDS011;32037;50.820;6.494;2023-03-03T08:26:22;19.65;;;12.15;;
46308;SDS011;32037;50.820;6.494;2023-03-03T08:28:51;24.80;;;14.27;;
46308;SDS011;32037;50.820;6.494;2023-03-03T08:31:21;22.75;;;12.20;;
46308;SDS011;32037;50.820;6.494;2023-03-03T08:34:05;16.52;;;9.38;;
46308;SDS011;32037;50.820;6.494;2023-03-03T08:36:34;18.88;;;9.73;;
46308;SDS011;32037;50.820;6.494;2023-03-03T08:39:03;13.23;;;9.60;;
46308;SDS011;32037;50.820;6.494;2023-03-03T08:41:33;15.38;;;9.88;;
46308;SDS011;32037;50.820;6.494;2023-03-03T08:44:01;16.00;;;10.88;;
46308;SDS011;32037;50.820;6.494;2023-03-03T08:46:30;20.23;;;10.10;;
46308;SDS011;32037;50.820;6.494;2023-03-03T08:48:59;17.17;;;9.77;;
46308;SDS011;32037;50.820;6.494;2023-03-03T08:51:28;16.90;;;9.88;;
46308;SDS011;32037;50.820;6.494;2023-03-03T08:53:56;18.00;;;11.32;;
46308;SDS011;32037;50.820;6.494;2023-03-03T08:56:25;16.55;;;9.65;;
46308;SDS011;32037;50.820;6.494;2023-03-03T08:58:55;14.30;;;9.90;;
46308;SDS011;32037;50.820;6.494;2023-03-03T09:01:29;13.80;;;9.10;;
46308;SDS011;32037;50.820;6.494;2023-03-03T09:03:58;14.18;;;10.07;;
46308;SDS011;32037;50.820;6.494;2023-03-03T09:06:27;15.20;;;9.05;;
46308;SDS011;32037;50.820;6.494;2023-03-03T09:08:55;20.88;;;10.73;;
46308;SDS011;32037;50.820;6.494;2023-03-03T09:11:25;17.13;;;11.30;;
46308;SDS011;32037;50.820;6.494;2023-03-03T09:13:58;16.92;;;9.60;;
46308;SDS011;32037;50.820;6.494;2023-03-03T09:16:34;15.10;;;9.82;;
46308;SDS011;32037;50.820;6.494;2023-03-03T09:19:15;16.75;;;9.57;;
46308;SDS011;32037;50.820;6.494;2023-03-03T09:21:48;17.50;;;9.90;;
46308;SDS011;32037;50.820;6.494;2023-03-03T09:24:24;17.38;;;10.98;;
46308;SDS011;32037;50.820;6.494;2023-03-03T09:26:54;21.67;;;11.25;;
46308;SDS011;32037;50.820;6.494;2023-03-03T09:29:26;16.15;;;10.15;;
46308;SDS011;32037;50.820;6.494;2023-03-03T09:31:56;18.40;;;11.68;;
46308;SDS011;32037;50.820;6.494;2023-03-03T09:34:35;18.75;;;10.68;;
46308;SDS011;32037;50.820;6.494;2023-03-03T09:37:14;17.08;;;11.25;;
46308;SDS011;32037;50.820;6.494;2023-03-03T09:39:49;18.08;;;10.52;;
46308;SDS011;32037;50.820;6.494;2023-03-03T09:42:32;16.90;;;10.15;;
46308;SDS011;32037;50.820;6.494;2023-03-03T09:45:21;17.13;;;10.60;;
46308;SDS011;32037;50.820;6.494;2023-03-03T09:51:04;19.85;;;11.15;;
46308;SDS011;32037;50.820;6.494;2023-03-03T09:53:49;17.65;;;9.70;;
46308;SDS011;32037;50.820;6.494;2023-03-03T09:56:27;18.90;;;10.20;;
46308;SDS011;32037;50.820;6.494;2023-03-03T10:02:02;18.85;;;9.38;;
46308;SDS011;32037;50.820;6.494;2023-03-03T10:04:52;17.75;;;10.45;;
46308;SDS011;32037;50.820;6.494;2023-03-03T10:07:38;15.95;;;10.73;;
46308;SDS011;32037;50.820;6.494;2023-03-03T10:10:17;18.45;;;10.70;;
46308;SDS011;32037;50.820;6.494;2023-03-03T10:13:00;16.67;;;10.23;;
46308;SDS011;32037;50.820;6.494;2023-03-03T10:15:41;16.30;;;10.40;;
46308;SDS011;32037;50.820;6.494;2023-03-03T10:18:24;18.08;;;11.00;;
46308;SDS011;32037;50.820;6.494;2023-03-03T10:21:01;15.90;;;9.75;;
46308;SDS011;32037;50.820;6.494;2023-03-03T10:23:49;18.00;;;10.30;;
46308;SDS011;32037;50.820;6.494;2023-03-03T10:29:41;16.67;;;10.55;;
46308;SDS011;32037;50.820;6.494;2023-03-03T10:32:26;19.42;;;10.63;;
46308;SDS011;32037;50.820;6.494;2023-03-03T10:35:26;15.88;;;9.85;;
46308;SDS011;32037;50.820;6.494;2023-03-03T10:38:24;16.55;;;9.48;;
46308;SDS011;32037;50.820;6.494;2023-03-03T10:41:25;16.33;;;10.75;;
46308;SDS011;32037;50.820;6.494;2023-03-03T10:44:22;22.48;;;10.23;;
46308;SDS011;32037;50.820;6.494;2023-03-03T10:50:06;20.83;;;12.18;;
46308;SDS011;32037;50.820;6.494;2023-03-03T10:52:45;17.50;;;10.02;;
46308;SDS011;32037;50.820;6.494;2023-03-03T10:55:21;16.00;;;10.75;;
46308;SDS011;32037;50.820;6.494;2023-03-03T10:58:07;19.30;;;10.35;;
46308;SDS011;32037;50.820;6.494;2023-03-03T11:00:48;17.30;;;10.85;;
46308;SDS011;32037;50.820;6.494;2023-03-03T11:06:40;30.55;;;16.33;;
46308;SDS011;32037;50.820;6.494;2023-03-03T11:09:23;23.27;;;11.35;;
46308;SDS011;32037;50.820;6.494;2023-03-03T11:12:05;16.80;;;11.55;;
46308;SDS011;32037;50.820;6.494;2023-03-03T11:14:49;21.10;;;11.43;;
46308;SDS011;32037;50.820;6.494;2023-03-03T11:17:31;18.30;;;9.75;;
46308;SDS011;32037;50.820;6.494;2023-03-03T11:20:15;29.10;;;15.80;;
46308;SDS011;32037;50.820;6.494;2023-03-03T11:22:58;31.98;;;17.23;;
46308;SDS011;32037;50.820;6.494;2023-03-03T11:25:36;20.73;;;11.70;;
46308;SDS011;32037;50.820;6.494;2023-03-03T11:28:18;29.20;;;15.35;;
46308;SDS011;32037;50.820;6.494;2023-03-03T11:31:04;18.60;;;11.45;;
46308;SDS011;32037;50.820;6.494;2023-03-03T11:33:42;24.92;;;14.07;;
46308;SDS011;32037;50.820;6.494;2023-03-03T11:36:18;19.60;;;12.55;;
46308;SDS011;32037;50.820;6.494;2023-03-03T11:38:53;26.77;;;15.10;;
46308;SDS011;32037;50.820;6.494;2023-03-03T11:41:33;17.52;;;10.95;;
46308;SDS011;32037;50.820;6.494;2023-03-03T11:44:16;17.60;;;10.70;;
46308;SDS011;32037;50.820;6.494;2023-03-03T11:46:50;17.02;;;10.35;;
46308;SDS011;32037;50.820;6.494;2023-03-03T11:49:21;19.23;;;11.93;;
46308;SDS011;32037;50.820;6.494;2023-03-03T11:51:59;22.85;;;13.55;;
46308;SDS011;32037;50.820;6.494;2023-03-03T11:54:33;26.50;;;15.20;;
46308;SDS011;32037;50.820;6.494;2023-03-03T11:57:15;28.77;;;16.00;;
46308;SDS011;32037;50.820;6.494;2023-03-03T11:59:51;26.58;;;15.13;;
46308;SDS011;32037;50.820;6.494;2023-03-03T12:02:32;24.92;;;13.18;;
46308;SDS011;32037;50.820;6.494;2023-03-03T12:05:26;17.40;;;10.40;;
46308;SDS011;32037;50.820;6.494;2023-03-03T12:08:07;16.35;;;10.30;;
46308;SDS011;32037;50.820;6.494;2023-03-03T12:10:49;19.30;;;12.02;;
46308;SDS011;32037;50.820;6.494;2023-03-03T12:13:26;16.83;;;11.80;;
46308;SDS011;32037;50.820;6.494;2023-03-03T12:16:05;16.08;;;10.90;;
46308;SDS011;32037;50.820;6.494;2023-03-03T12:18:49;20.48;;;14.35;;
46308;SDS011;32037;50.820;6.494;2023-03-03T12:21:33;34.60;;;19.42;;
46308;SDS011;32037;50.820;6.494;2023-03-03T12:24:17;20.85;;;11.35;;
46308;SDS011;32037;50.820;6.494;2023-03-03T12:27:00;17.85;;;9.90;;
46308;SDS011;32037;50.820;6.494;2023-03-03T12:29:40;22.20;;;13.25;;
46308;SDS011;32037;50.820;6.494;2023-03-03T12:32:20;19.80;;;11.25;;
46308;SDS011;32037;50.820;6.494;2023-03-03T12:34:56;25.30;;;12.35;;
46308;SDS011;32037;50.820;6.494;2023-03-03T12:37:35;16.15;;;10.45;;
46308;SDS011;32037;50.820;6.494;2023-03-03T12:40:15;23.85;;;13.75;;
46308;SDS011;32037;50.820;6.494;2023-03-03T12:42:49;20.27;;;10.32;;
46308;SDS011;32037;50.820;6.494;2023-03-03T12:45:30;16.60;;;11.45;;
46308;SDS011;32037;50.820;6.494;2023-03-03T12:48:07;23.05;;;14.25;;
46308;SDS011;32037;50.820;6.494;2023-03-03T12:50:41;29.58;;;15.40;;
46308;SDS011;32037;50.820;6.494;2023-03-03T12:53:24;19.33;;;12.45;;
46308;SDS011;32037;50.820;6.494;2023-03-03T12:56:05;22.58;;;12.00;;
46308;SDS011;32037;50.820;6.494;2023-03-03T12:58:37;18.30;;;10.52;;
46308;SDS011;32037;50.820;6.494;2023-03-03T13:01:24;23.90;;;11.32;;
46308;SDS011;32037;50.820;6.494;2023-03-03T13:04:07;20.15;;;11.80;;
46308;SDS011;32037;50.820;6.494;2023-03-03T13:06:45;17.67;;;11.30;;
46308;SDS011;32037;50.820;6.494;2023-03-03T13:09:26;21.23;;;11.13;;
46308;SDS011;32037;50.820;6.494;2023-03-03T13:12:03;17.90;;;11.02;;
46308;SDS011;32037;50.820;6.494;2023-03-03T13:14:46;21.08;;;13.15;;
46308;SDS011;32037;50.820;6.494;2023-03-03T13:17:21;26.88;;;15.35;;
46308;SDS011;32037;50.820;6.494;2023-03-03T13:19:55;21.15;;;13.13;;
46308;SDS011;32037;50.820;6.494;2023-03-03T13:22:31;20.80;;;11.45;;
46308;SDS011;32037;50.820;6.494;2023-03-03T13:25:06;19.85;;;12.43;;
46308;SDS011;32037;50.820;6.494;2023-03-03T13:27:48;15.68;;;10.85;;
46308;SDS011;32037;50.820;6.494;2023-03-03T13:30:21;17.95;;;10.82;;
46308;SDS011;32037;50.820;6.494;2023-03-03T13:33:02;20.90;;;11.70;;
46308;SDS011;32037;50.820;6.494;2023-03-03T13:35:37;22.15;;;11.55;;
46308;SDS011;32037;50.820;6.494;2023-03-03T13:38:11;21.15;;;13.07;;
46308;SDS011;32037;50.820;6.494;2023-03-03T13:40:45;15.32;;;10.68;;
46308;SDS011;32037;50.820;6.494;2023-03-03T13:43:17;19.38;;;12.20;;
46308;SDS011;32037;50.820;6.494;2023-03-03T13:45:52;20.15;;;11.65;;
46308;SDS011;32037;50.820;6.494;2023-03-03T13:48:33;16.77;;;10.63;;
46308;SDS011;32037;50.820;6.494;2023-03-03T13:51:22;26.73;;;13.65;;
46308;SDS011;32037;50.820;6.494;2023-03-03T13:54:01;19.27;;;13.15;;
46308;SDS011;32037;50.820;6.494;2023-03-03T13:56:42;19.63;;;11.63;;
46308;SDS011;32037;50.820;6.494;2023-03-03T13:59:27;22.80;;;14.18;;
46308;SDS011;32037;50.820;6.494;2023-03-03T14:02:07;23.10;;;13.55;;
46308;SDS011;32037;50.820;6.494;2023-03-03T14:04:58;18.35;;;11.30;;
46308;SDS011;32037;50.820;6.494;2023-03-03T14:07:30;21.90;;;12.55;;
46308;SDS011;32037;50.820;6.494;2023-03-03T14:10:06;22.52;;;11.13;;
46308;SDS011;32037;50.820;6.494;2023-03-03T14:12:43;21.67;;;11.48;;
46308;SDS011;32037;50.820;6.494;2023-03-03T14:15:18;18.65;;;11.38;;
46308;SDS011;32037;50.820;6.494;2023-03-03T14:18:01;20.58;;;12.15;;
46308;SDS011;32037;50.820;6.494;2023-03-03T14:20:40;21.48;;;11.80;;
46308;SDS011;32037;50.820;6.494;2023-03-03T14:23:15;21.50;;;13.57;;
46308;SDS011;32037;50.820;6.494;2023-03-03T14:25:52;22.35;;;14.10;;
46308;SDS011;32037;50.820;6.494;2023-03-03T14:28:24;20.95;;;12.48;;
46308;SDS011;32037;50.820;6.494;2023-03-03T14:30:55;21.65;;;11.50;;
46308;SDS011;32037;50.820;6.494;2023-03-03T14:33:25;22.30;;;13.50;;
46308;SDS011;32037;50.820;6.494;2023-03-03T14:36:03;19.55;;;11.88;;
46308;SDS011;32037;50.820;6.494;2023-03-03T14:38:37;20.27;;;13.38;;
46308;SDS011;32037;50.820;6.494;2023-03-03T14:41:12;18.00;;;11.75;;
46308;SDS011;32037;50.820;6.494;2023-03-03T14:43:58;23.52;;;13.35;;
46308;SDS011;32037;50.820;6.494;2023-03-03T14:46:31;20.23;;;11.85;;
46308;SDS011;32037;50.820;6.494;2023-03-03T14:49:05;23.52;;;11.20;;
46308;SDS011;32037;50.820;6.494;2023-03-03T14:51:43;20.98;;;13.40;;
46308;SDS011;32037;50.820;6.494;2023-03-03T14:54:15;21.75;;;13.95;;
46308;SDS011;32037;50.820;6.494;2023-03-03T14:56:59;21.70;;;12.07;;
46308;SDS011;32037;50.820;6.494;2023-03-03T14:59:32;26.50;;;14.32;;
46308;SDS011;32037;50.820;6.494;2023-03-03T15:02:07;22.42;;;12.80;;
46308;SDS011;32037;50.820;6.494;2023-03-03T15:05:07;19.25;;;12.13;;
46308;SDS011;32037;50.820;6.494;2023-03-03T15:07:44;24.58;;;14.65;;
46308;SDS011;32037;50.820;6.494;2023-03-03T15:10:25;26.25;;;16.00;;
46308;SDS011;32037;50.820;6.494;2023-03-03T15:13:01;20.52;;;12.23;;
46308;SDS011;32037;50.820;6.494;2023-03-03T15:15:56;22.42;;;11.95;;
46308;SDS011;32037;50.820;6.494;2023-03-03T15:18:30;23.70;;;12.55;;
46308;SDS011;32037;50.820;6.494;2023-03-03T15:21:01;29.02;;;14.02;;
46308;SDS011;32037;50.820;6.494;2023-03-03T15:23:37;21.33;;;13.43;;
46308;SDS011;32037;50.820;6.494;2023-03-03T15:26:16;20.58;;;13.82;;
46308;SDS011;32037;50.820;6.494;2023-03-03T15:28:52;26.25;;;15.60;;
46308;SDS011;32037;50.820;6.494;2023-03-03T15:31:30;29.60;;;15.85;;
46308;SDS011;32037;50.820;6.494;2023-03-03T15:34:16;26.38;;;15.02;;